Gesamt
Thevenard Island Airport YTHV Wetter
There is no TAF data available at YTHV. Showing TAF data for YOLW (16 mi S).
ONS Terminal Area Forecast (keine Daten für YTHV)
| Date | Time (AWST) | Flight Rules | Wind Dir. | Speed | Type | Height AGL (ft) | Visibility | Remarks | ||||||
|---|---|---|---|---|---|---|---|---|---|---|---|---|---|---|
There is no METAR data available at YTHV. Showing METAR data for YOLW (16 mi S).
Aktueller METAR-Verlauf ONS (keine Daten für YTHV)
| Date | Time (AWST) | Flight Rules | Wind Dir. | Speed | Type | Height AGL (ft) | Visibility | Temp (°C) | Temp (°F) | Dew Point (°C) | Dew Point (°F) | Rel. Humid. | Pressure | Density Altitude | Remarks |
|---|---|---|---|---|---|---|---|---|---|---|---|---|---|---|---|
| 11-Mai | 02:00 | VFR | 100° | 5 kt | 10000 meters | 17° | 62° | 14° | 57° | 82% | 1018 mb | 111 ft | |||
| 11-Mai | 01:00 | VFR | 220° | 4 kt | 10000 meters | 18° | 64° | 15° | 59° | 83% | 1018 mb | 231 ft | |||
| 11-Mai | 00:00 | VFR | Calm | 10000 meters | 19° | 66° | 13° | 55° | 68% | 1018 mb | 351 ft | ||||
| 10-Mai | 23:00 | VFR | 220° | 5 kt | 10000 meters | 20° | 68° | 13° | 55° | 64% | 1018 mb | 471 ft | |||
| 10-Mai | 22:00 | VFR | 210° | 7 kt | 10000 meters | 20° | 68° | 14° | 57° | 68% | 1019 mb | 442 ft | |||
| 10-Mai | 21:00 | VFR | 330° | 5 kt | 10000 meters | 20° | 68° | 13° | 55° | 64% | 1019 mb | 442 ft | |||
| 10-Mai | 20:00 | VFR | 330° | 5 kt | 10000 meters | 21° | 69° | 13° | 55° | 60% | 1018 mb | 591 ft | |||
| 10-Mai | 19:00 | VFR | 320° | 6 kt | 10000 meters | 22° | 71° | 13° | 55° | 57% | 1017 mb | 741 ft | |||
| 10-Mai | 18:00 | VFR | 340° | 8 kt | 10000 meters | 23° | 73° | 14° | 57° | 57% | 1016 mb | 891 ft | |||
| 10-Mai | 17:00 | VFR | 310° | 9 kt | 10000 meters | 26° | 78° | 11° | 51° | 39% | 1016 mb | 1.251 ft | |||
| 10-Mai | 16:00 | VFR | 310° | 9 kt | 10000 meters | 27° | 80° | 6° | 42° | 26% | 1016 mb | 1.371 ft | |||
| 10-Mai | 15:00 | VFR | 340° | 10 kt | 10000 meters | 28° | 82° | 8° | 46° | 28% | 1016 mb | 1.491 ft | |||
| 10-Mai | 14:00 | VFR | 360° | 9 kt | 10000 meters | 29° | 84° | 7° | 44° | 25% | 1016 mb | 1.611 ft | |||
| 10-Mai | 13:00 | VFR | 10° | 11 kt | 10000 meters | 28° | 82° | 7° | 44° | 27% | 1017 mb | 1.461 ft | |||
| 10-Mai | 12:00 | VFR | 80° | 9 kt | 10000 meters | 28° | 82° | 4° | 39° | 22% | 1018 mb | 1.431 ft | |||
| 10-Mai | 11:00 | VFR | 80° | 13 kt | 10000 meters | 27° | 80° | 4° | 39° | 23% | 1019 mb | 1.282 ft | |||
| 10-Mai | 10:00 | VFR | 90° | 15 kt | 10000 meters | 25° | 77° | 5° | 41° | 28% | 1019 mb | 1.042 ft | |||
| 10-Mai | 09:00 | VFR | 110° | 13 kt | 10000 meters | 23° | 73° | 3° | 37° | 27% | 1019 mb | 802 ft | |||
| 10-Mai | 08:00 | VFR | 120° | 10 kt | 10000 meters | 19° | 66° | 3° | 37° | 34% | 1019 mb | 322 ft | |||
| 10-Mai | 07:00 | VFR | 110° | 9 kt | 10000 meters | 16° | 60° | 4° | 39° | 45% | 1019 mb | -38 ft | |||
| 10-Mai | 06:00 | VFR | 110° | 10 kt | 10000 meters | 17° | 62° | 4° | 39° | 42% | 1018 mb | 111 ft | |||
| 10-Mai | 05:00 | VFR | 100° | 7 kt | 10000 meters | 16° | 60° | 6° | 42° | 51% | 1018 mb | -9 ft | |||
| 10-Mai | 04:00 | VFR | 90° | 8 kt | 10000 meters | 17° | 62° | 7° | 44° | 52% | 1017 mb | 141 ft | |||
| 10-Mai | 03:00 | VFR | 70° | 11 kt | 10000 meters | 19° | 66° | 6° | 42° | 43% | 1017 mb | 381 ft |
Anmelden
| Ihr Browser wird nicht unterstützt. aktualisieren Sie Ihren Browser |
